Great Barton, United Kingdom
Current Conditions -  °F | °C
As of 10:58 PM on Wednesday 26 Nov 2014 (Local Time) from EGUL Reporting Station
Moderate Fog Moderate Fog  
Wind Chill: 47°   Ceiling: 100
Heat Index: 47°   Visibility: 0.25mi
Dew Point: 47°   Wind: 0mph
Humidity: 100%   Direction: NA
Pressure: 29.74"   Gusts: NA
Location:  52.27°N, 0.77°E
Report Text: EGUL 262258Z AUTO 00000KT 0400 R06/0350 FG VV001 08/08 A2974 RMK AO2 SLP074 T00840084
Loading
Personal Weather Stations






























Interactive Weather Map New forecast layout! Learn more

10-Day Weather Forecast

Advertisements
Track Severe Weather on mobile